createdAt,value
2018-02-05T00:02:21.116Z,67.70
2018-02-05T00:04:48.685Z,67.61
2018-02-05T00:07:16.221Z,67.62
2018-02-05T00:09:43.984Z,67.23
2018-02-05T00:12:11.517Z,66.95
2018-02-05T00:14:39.038Z,66.79
2018-02-05T00:17:06.605Z,66.70
2018-02-05T00:19:34.128Z,66.65
2018-02-05T00:22:01.639Z,66.71
2018-02-05T00:24:29.167Z,66.80
2018-02-05T00:26:56.648Z,66.88
2018-02-05T00:29:24.172Z,66.64
2018-02-05T00:31:51.653Z,66.55
2018-02-05T00:34:19.219Z,66.28
2018-02-05T00:36:46.712Z,66.23
2018-02-05T00:39:14.193Z,66.09
2018-02-05T00:41:41.711Z,66.03
2018-02-05T00:44:10.175Z,66.34
2018-02-05T00:46:37.704Z,66.80
2018-02-05T00:49:05.297Z,66.72
2018-02-05T00:51:32.798Z,66.66
2018-02-05T00:54:05.431Z,66.53
2018-02-05T00:56:32.923Z,66.49
2018-02-05T00:59:00.542Z,66.57
2018-02-05T01:01:28.090Z,66.58
2018-02-05T01:03:55.697Z,66.12
2018-02-05T01:06:23.224Z,66.18
2018-02-05T01:08:50.838Z,65.82
2018-02-05T01:11:18.436Z,65.97
2018-02-05T01:13:45.976Z,65.95
2018-02-05T01:16:13.490Z,66.27
2018-02-05T01:18:41.024Z,66.67
2018-02-05T01:21:08.609Z,66.96
2018-02-05T01:23:36.121Z,66.82
2018-02-05T01:26:03.654Z,66.60
2018-02-05T01:28:31.160Z,66.84
2018-02-05T01:30:58.700Z,67.15
2018-02-05T01:33:26.213Z,67.12
2018-02-05T01:35:53.718Z,66.79
2018-02-05T01:38:21.281Z,66.80
2018-02-05T01:40:48.771Z,66.95
2018-02-05T01:43:16.302Z,66.68
2018-02-05T01:45:43.892Z,66.45
2018-02-05T01:48:11.434Z,66.36
2018-02-05T01:50:38.916Z,66.41
2018-02-05T01:53:06.454Z,66.29
2018-02-05T01:55:33.998Z,66.24
2018-02-05T01:58:01.623Z,66.19
2018-02-05T02:00:29.345Z,66.28
2018-02-05T02:02:56.918Z,66.40
2018-02-05T02:05:24.504Z,66.39
2018-02-05T02:07:52.025Z,66.27
2018-02-05T02:10:19.558Z,66.04
2018-02-05T02:12:47.046Z,65.97
2018-02-05T02:15:14.580Z,66.20
2018-02-05T02:17:42.117Z,65.99
2018-02-05T02:20:09.612Z,66.20
2018-02-05T02:22:37.162Z,66.31
2018-02-05T02:25:04.669Z,66.42
2018-02-05T02:27:32.218Z,66.52
2018-02-05T02:29:59.710Z,66.31
2018-02-05T02:32:27.207Z,66.17
2018-02-05T02:34:54.741Z,65.96
2018-02-05T02:37:23.085Z,65.82
2018-02-05T02:39:50.730Z,66.09
2018-02-05T02:42:18.289Z,66.13
2018-02-05T02:44:45.836Z,66.09
2018-02-05T02:47:13.453Z,66.28
2018-02-05T02:49:40.996Z,66.09
2018-02-05T02:52:08.509Z,65.93
2018-02-05T02:54:35.994Z,66.10
2018-02-05T02:57:03.512Z,66.42
2018-02-05T02:59:31.008Z,66.38
2018-02-05T03:01:59.446Z,66.42
2018-02-05T03:04:27.095Z,66.35
2018-02-05T03:06:54.603Z,66.54
2018-02-05T03:09:22.080Z,66.75
2018-02-05T03:11:49.594Z,66.59
2018-02-05T03:14:17.082Z,66.47
2018-02-05T03:16:44.694Z,66.37
2018-02-05T03:19:12.572Z,66.38
2018-02-05T03:21:40.084Z,66.25
2018-02-05T03:24:07.579Z,66.05
2018-02-05T03:26:35.088Z,65.99
2018-02-05T03:29:02.681Z,66.08
2018-02-05T03:31:30.172Z,66.08
2018-02-05T03:33:57.695Z,65.88
2018-02-05T03:36:25.195Z,65.79
2018-02-05T03:38:52.724Z,65.80
2018-02-05T03:41:20.200Z,65.48
2018-02-05T03:43:47.707Z,65.39
2018-02-05T03:46:15.218Z,64.97
2018-02-05T03:48:42.713Z,65.01
2018-02-05T03:51:10.226Z,64.92
2018-02-05T03:53:37.708Z,64.62
2018-02-05T03:56:05.225Z,64.54
2018-02-05T03:58:32.713Z,64.28
2018-02-05T04:01:00.264Z,63.97
2018-02-05T04:03:27.777Z,64.10
2018-02-05T04:05:55.357Z,64.47
2018-02-05T04:08:22.978Z,64.65
2018-02-05T04:10:50.527Z,64.81
2018-02-05T04:13:18.165Z,64.69
2018-02-05T04:15:45.759Z,64.11
2018-02-05T04:18:13.284Z,64.14
2018-02-05T04:20:40.832Z,64.27
2018-02-05T04:23:08.409Z,64.00
2018-02-05T04:25:35.918Z,64.35
2018-02-05T04:28:03.444Z,64.36
2018-02-05T04:30:30.956Z,64.30
2018-02-05T04:32:58.473Z,64.08
2018-02-05T04:35:26.018Z,64.13
2018-02-05T04:37:53.503Z,64.08
2018-02-05T04:40:21.025Z,63.95
2018-02-05T04:42:48.537Z,63.88
2018-02-05T04:45:16.028Z,64.12
2018-02-05T04:47:44.440Z,64.60
2018-02-05T04:50:11.957Z,64.80
2018-02-05T04:52:39.506Z,65.10
2018-02-05T04:55:07.219Z,65.10
2018-02-05T04:57:35.346Z,65.79
2018-02-05T05:00:02.887Z,65.81
2018-02-05T05:02:30.403Z,65.51
2018-02-05T05:04:57.936Z,65.42
2018-02-05T05:07:25.580Z,65.82
2018-02-05T05:09:53.081Z,65.90
2018-02-05T05:12:20.582Z,65.73
2018-02-05T05:14:48.103Z,65.70
2018-02-05T05:17:17.017Z,65.29
2018-02-05T05:19:44.536Z,65.27
2018-02-05T05:22:12.114Z,64.90
2018-02-05T05:24:39.585Z,65.14
2018-02-05T05:27:07.200Z,65.10
2018-02-05T05:29:34.712Z,65.24
2018-02-05T05:32:02.289Z,64.96
2018-02-05T05:34:29.818Z,64.78
2018-02-05T05:36:57.342Z,64.96
2018-02-05T05:39:25.015Z,64.92
2018-02-05T05:41:52.573Z,64.75
2018-02-05T05:44:20.834Z,65.07
2018-02-05T05:46:48.333Z,65.10
2018-02-05T05:49:15.853Z,64.92
2018-02-05T05:51:43.389Z,65.19
2018-02-05T05:54:10.914Z,65.37
2018-02-05T05:56:38.406Z,65.43
2018-02-05T05:59:05.952Z,65.32
2018-02-05T06:01:33.445Z,65.17
2018-02-05T06:04:00.975Z,65.03
2018-02-05T06:06:29.400Z,64.63
2018-02-05T06:08:56.924Z,64.48
2018-02-05T06:11:24.573Z,64.56
2018-02-05T06:13:52.182Z,64.86
2018-02-05T06:16:19.724Z,65.36
2018-02-05T06:18:47.205Z,65.18
2018-02-05T06:21:14.766Z,65.66
2018-02-05T06:23:42.282Z,65.89
2018-02-05T06:26:10.143Z,66.04
2018-02-05T06:28:37.696Z,65.78
2018-02-05T06:31:05.180Z,65.80
2018-02-05T06:33:32.695Z,65.87
2018-02-05T06:36:00.312Z,65.78
2018-02-05T06:38:28.017Z,65.61
2018-02-05T06:40:55.602Z,65.50
2018-02-05T06:43:23.191Z,65.70
2018-02-05T06:45:51.349Z,65.73
2018-02-05T06:51:04.323Z,65.68
2018-02-05T06:53:43.579Z,65.72
2018-02-05T06:56:26.846Z,65.83
2018-02-05T06:58:54.344Z,65.64
2018-02-05T07:01:22.579Z,65.55
2018-02-05T07:03:50.108Z,65.62
2018-02-05T07:06:17.617Z,65.50
2018-02-05T07:08:45.113Z,65.53
2018-02-05T07:11:12.636Z,65.36
2018-02-05T07:13:40.157Z,65.65
2018-02-05T07:16:07.670Z,65.90
2018-02-05T07:18:35.202Z,66.03
2018-02-05T07:21:02.777Z,66.05
2018-02-05T07:23:30.385Z,65.90
2018-02-05T07:25:57.871Z,65.95
2018-02-05T07:28:25.376Z,65.74
2018-02-05T07:30:52.913Z,65.34
2018-02-05T07:33:20.750Z,65.45
2018-02-05T07:35:48.309Z,65.47
2018-02-05T07:38:15.827Z,65.18
2018-02-05T07:40:43.373Z,65.34
2018-02-05T07:43:10.930Z,65.40
2018-02-05T07:45:38.438Z,64.86
2018-02-05T07:48:05.928Z,63.36
2018-02-05T07:50:33.464Z,60.15
2018-02-05T07:53:00.960Z,57.54
2018-02-05T07:55:28.484Z,56.71
2018-02-05T07:57:56.033Z,56.07
2018-02-05T08:00:23.823Z,56.39
2018-02-05T08:02:51.326Z,55.49
2018-02-05T08:05:18.832Z,56.36
2018-02-05T08:07:46.373Z,57.17
2018-02-05T08:10:13.870Z,56.84
2018-02-05T08:12:41.390Z,56.10
2018-02-05T08:15:08.912Z,54.34
2018-02-05T08:17:37.249Z,53.45
2018-02-05T08:20:04.754Z,52.08
2018-02-05T08:22:32.260Z,52.08
2018-02-05T08:24:59.832Z,50.98
2018-02-05T08:27:27.342Z,49.99
2018-02-05T08:29:54.855Z,49.17
2018-02-05T08:32:22.355Z,50.23
2018-02-05T08:34:49.900Z,49.53
2018-02-05T08:37:17.815Z,48.87
2018-02-05T08:39:45.352Z,48.86
2018-02-05T08:42:12.857Z,49.12
2018-02-05T08:44:40.398Z,50.66
2018-02-05T08:47:07.939Z,51.76
2018-02-05T08:49:35.480Z,51.04
2018-02-05T08:52:03.001Z,50.85
2018-02-05T08:54:30.506Z,51.94
2018-02-05T08:56:58.019Z,53.75
2018-02-05T08:59:25.609Z,53.67
2018-02-05T09:01:53.260Z,54.56
2018-02-05T09:04:20.855Z,54.07
2018-02-05T09:06:48.452Z,54.54
2018-02-05T09:09:16.026Z,54.74
2018-02-05T09:11:43.649Z,54.32
2018-02-05T09:14:11.150Z,54.47
2018-02-05T09:16:38.648Z,54.75
2018-02-05T09:19:06.186Z,54.80
2018-02-05T09:21:33.686Z,55.21
2018-02-05T09:24:01.259Z,55.67
2018-02-05T09:26:28.769Z,55.77
2018-02-05T09:28:56.320Z,55.63
2018-02-05T09:31:23.994Z,55.84
2018-02-05T09:33:51.523Z,55.86
2018-02-05T09:36:19.113Z,56.36
2018-02-05T09:38:46.634Z,55.27
2018-02-05T09:41:14.959Z,56.21
2018-02-05T09:43:42.474Z,55.42
2018-02-05T09:46:09.988Z,56.09
2018-02-05T09:48:37.530Z,56.75
2018-02-05T09:51:05.119Z,56.59
2018-02-05T09:53:32.644Z,56.62
2018-02-05T09:56:00.165Z,57.04
2018-02-05T09:58:27.670Z,56.17
2018-02-05T10:00:55.199Z,56.84
2018-02-05T10:03:22.788Z,57.58
2018-02-05T10:05:50.318Z,57.51
2018-02-05T10:08:17.859Z,58.13
2018-02-05T10:10:45.380Z,58.24
2018-02-05T10:13:12.873Z,57.46
2018-02-05T10:15:40.398Z,57.55
2018-02-05T10:18:07.943Z,56.81
2018-02-05T10:20:35.513Z,57.35
2018-02-05T10:23:03.011Z,56.96
2018-02-05T10:25:31.310Z,57.57
2018-02-05T10:27:58.850Z,56.68
2018-02-05T10:30:26.440Z,57.03
2018-02-05T10:32:53.950Z,57.52
2018-02-05T10:35:21.454Z,57.84
2018-02-05T10:37:49.051Z,57.07
2018-02-05T10:40:16.543Z,56.56
2018-02-05T10:42:44.078Z,56.79
2018-02-05T10:45:11.597Z,56.96
2018-02-05T10:47:39.088Z,57.52
2018-02-05T10:50:06.601Z,57.91
2018-02-05T10:52:34.085Z,56.47
2018-02-05T10:55:01.605Z,56.21
2018-02-05T10:57:29.192Z,56.71
2018-02-05T10:59:56.775Z,56.59
2018-02-05T11:02:24.355Z,55.63
2018-02-05T11:04:51.947Z,56.12
2018-02-05T11:07:19.430Z,56.23
2018-02-05T11:09:46.955Z,56.45
2018-02-05T11:12:14.516Z,56.47
2018-02-05T11:14:42.113Z,56.28
2018-02-05T11:17:09.704Z,56.32
2018-02-05T11:19:37.212Z,57.66
2018-02-05T11:22:04.859Z,54.06
2018-02-05T11:24:32.378Z,49.86
2018-02-05T11:26:59.922Z,46.30
2018-02-05T11:29:27.440Z,43.87
2018-02-05T11:31:55.010Z,42.21
2018-02-05T11:34:22.516Z,40.44
2018-02-05T11:36:50.026Z,38.94
2018-02-05T11:39:17.563Z,38.52
2018-02-05T11:41:45.056Z,37.13
2018-02-05T11:44:12.575Z,37.02
2018-02-05T11:46:40.084Z,37.85
2018-02-05T11:49:07.619Z,36.84
2018-02-05T11:51:35.181Z,38.24
2018-02-05T11:54:02.750Z,38.22
2018-02-05T11:56:30.271Z,39.16
2018-02-05T11:58:57.829Z,39.53
2018-02-05T12:01:25.314Z,40.81
2018-02-05T12:03:52.811Z,38.42
2018-02-05T12:06:20.407Z,37.61
2018-02-05T12:08:48.016Z,35.93
2018-02-05T12:11:15.561Z,35.09
2018-02-05T12:13:43.051Z,34.06
2018-02-05T12:16:10.570Z,34.75
2018-02-05T12:18:38.713Z,32.62
2018-02-05T12:21:06.201Z,30.94
2018-02-05T12:23:34.067Z,31.28
2018-02-05T12:26:01.549Z,31.73
2018-02-05T12:28:29.084Z,31.78
2018-02-05T12:30:56.699Z,32.50
2018-02-05T12:33:24.240Z,32.71
2018-02-05T12:35:51.747Z,31.97
2018-02-05T12:38:19.266Z,31.63
2018-02-05T12:40:46.774Z,30.97
2018-02-05T12:43:14.308Z,30.25
2018-02-05T12:45:41.842Z,30.32
2018-02-05T12:48:09.342Z,30.15
2018-02-05T12:50:36.875Z,31.04
2018-02-05T12:53:04.381Z,31.65
2018-02-05T12:55:31.979Z,32.39
2018-02-05T12:57:59.478Z,31.87
2018-02-05T13:03:47.809Z,33.72
2018-02-05T13:06:20.847Z,33.56
2018-02-05T13:08:48.358Z,34.72
2018-02-05T13:11:15.904Z,35.77
2018-02-05T13:13:43.387Z,36.15
2018-02-05T13:16:10.923Z,37.13
2018-02-05T13:18:38.881Z,37.54
2018-02-05T13:21:06.385Z,37.36
2018-02-05T13:23:33.862Z,37.05
2018-02-05T13:26:01.397Z,35.79
2018-02-05T13:28:28.880Z,35.55
2018-02-05T13:30:56.414Z,34.26
2018-02-05T13:33:23.963Z,36.00
2018-02-05T13:35:51.456Z,36.41
2018-02-05T13:38:18.997Z,36.35
2018-02-05T13:40:46.472Z,37.46
2018-02-05T13:43:14.026Z,38.97
2018-02-05T13:45:41.620Z,39.88
2018-02-05T13:48:09.128Z,40.04
2018-02-05T13:50:36.638Z,40.00
2018-02-05T13:53:04.167Z,40.10
2018-02-05T13:55:32.401Z,40.79
2018-02-05T13:57:59.925Z,41.19
2018-02-05T14:00:27.438Z,41.52
2018-02-05T14:02:54.959Z,42.49
2018-02-05T14:05:22.837Z,42.52
2018-02-05T14:07:50.362Z,43.49
2018-02-05T14:10:17.857Z,43.74
2018-02-05T14:12:45.619Z,43.91
2018-02-05T14:15:13.153Z,43.51
2018-02-05T14:17:40.692Z,43.81
2018-02-05T14:20:08.188Z,43.83
2018-02-05T14:22:35.729Z,44.05
2018-02-05T14:25:03.289Z,45.07
2018-02-05T14:27:31.710Z,45.34
2018-02-05T14:29:59.253Z,46.42
2018-02-05T14:32:26.757Z,46.78
2018-02-05T14:34:54.290Z,46.25
2018-02-05T14:37:21.804Z,46.59
2018-02-05T14:39:49.292Z,46.39
2018-02-05T14:42:16.809Z,47.13
2018-02-05T14:44:44.990Z,46.24
2018-02-05T14:47:12.536Z,47.64
2018-02-05T14:49:41.036Z,47.95
2018-02-05T14:52:08.565Z,48.65
2018-02-05T14:54:36.103Z,48.03
2018-02-05T14:57:03.643Z,48.32
2018-02-05T14:59:31.204Z,47.99
2018-02-05T15:01:58.706Z,48.18
2018-02-05T15:04:26.455Z,48.99
2018-02-05T15:06:53.992Z,49.07
2018-02-05T15:09:22.497Z,49.27
2018-02-05T15:11:50.027Z,49.84
2018-02-05T15:14:17.522Z,50.04
2018-02-05T15:16:45.028Z,49.58
2018-02-05T15:19:12.543Z,49.82
2018-02-05T15:21:41.865Z,49.22
2018-02-05T15:24:11.582Z,50.61
2018-02-05T15:26:41.102Z,48.94
2018-02-05T15:29:10.249Z,49.64
2018-02-05T15:31:39.512Z,49.82
2018-02-05T15:34:07.055Z,50.73
2018-02-05T15:36:36.276Z,50.77
2018-02-05T15:39:05.674Z,50.97
2018-02-05T15:44:11.787Z,50.99
2018-02-05T15:46:39.566Z,51.14
2018-02-05T15:49:10.667Z,51.30
2018-02-05T15:51:39.978Z,51.83
2018-02-05T15:54:09.276Z,51.27
2018-02-05T15:56:38.784Z,51.17
2018-02-05T15:59:06.863Z,51.62
2018-02-05T16:01:36.156Z,52.02
2018-02-05T16:04:06.077Z,52.58
2018-02-05T16:06:33.647Z,52.63
2018-02-05T16:09:01.315Z,52.79
2018-02-05T16:11:28.992Z,53.09
2018-02-05T16:13:56.490Z,52.97
2018-02-05T16:16:23.994Z,53.07
2018-02-05T16:18:51.540Z,52.95
2018-02-05T16:21:19.089Z,53.94
2018-02-05T16:23:46.695Z,54.16
2018-02-05T16:26:14.231Z,53.74
2018-02-05T16:28:41.768Z,53.67
2018-02-05T16:31:09.269Z,53.46
2018-02-05T16:33:37.127Z,53.10
2018-02-05T16:36:04.657Z,53.70
2018-02-05T16:38:32.215Z,53.74
2018-02-05T16:40:59.799Z,53.83
2018-02-05T16:43:27.360Z,53.80
2018-02-05T16:45:55.022Z,53.63
2018-02-05T16:48:22.574Z,53.73
2018-02-05T16:50:50.187Z,54.05
2018-02-05T16:53:17.747Z,53.96
2018-02-05T16:55:45.338Z,53.97
2018-02-05T16:58:12.842Z,54.21
2018-02-05T17:00:40.356Z,54.21
2018-02-05T17:03:07.974Z,54.43
2018-02-05T17:05:35.486Z,53.62
2018-02-05T17:08:02.994Z,54.04
2018-02-05T17:10:30.525Z,54.84
2018-02-05T17:12:58.025Z,54.49
2018-02-05T17:15:25.566Z,54.58
2018-02-05T17:17:53.091Z,54.60
2018-02-05T17:20:20.605Z,54.80
2018-02-05T17:22:48.405Z,55.06
2018-02-05T17:25:15.967Z,55.11
2018-02-05T17:27:44.869Z,54.86
2018-02-05T17:30:12.617Z,54.59
2018-02-05T17:32:40.377Z,54.29
2018-02-05T17:35:08.392Z,54.26
2018-02-05T17:37:35.961Z,54.25
2018-02-05T17:40:03.501Z,54.30
2018-02-05T17:42:31.392Z,54.23
2018-02-05T17:44:58.984Z,54.32
2018-02-05T17:47:27.214Z,54.36
2018-02-05T17:49:54.813Z,55.07
2018-02-05T17:52:22.376Z,55.44
2018-02-05T17:54:49.918Z,55.22
2018-02-05T17:57:17.423Z,55.22
2018-02-05T17:59:44.965Z,55.11
2018-02-05T18:02:12.564Z,55.48
2018-02-05T18:04:40.089Z,55.60
2018-02-05T18:07:08.095Z,55.24
2018-02-05T18:09:35.639Z,54.88
2018-02-05T18:12:03.304Z,54.82
2018-02-05T18:14:30.865Z,54.67
2018-02-05T18:16:59.150Z,54.46
2018-02-05T18:19:27.020Z,54.27
2018-02-05T18:21:54.618Z,54.03
2018-02-05T18:24:22.154Z,53.96
2018-02-05T18:26:49.686Z,53.77
2018-02-05T18:29:17.236Z,53.58
2018-02-05T18:31:44.767Z,53.32
2018-02-05T18:34:12.320Z,53.21
2018-02-05T18:36:40.003Z,53.34
2018-02-05T18:39:07.565Z,53.65
2018-02-05T18:41:35.135Z,53.66
2018-02-05T18:44:02.703Z,53.45
2018-02-05T18:46:30.233Z,53.31
2018-02-05T18:48:57.725Z,53.42
2018-02-05T18:51:25.270Z,53.25
2018-02-05T18:53:52.846Z,53.26
2018-02-05T18:56:32.338Z,53.15
2018-02-05T18:58:59.858Z,53.01
2018-02-05T19:01:27.451Z,52.94
2018-02-05T19:03:54.973Z,52.91
2018-02-05T19:06:22.552Z,52.86
2018-02-05T19:08:50.114Z,52.92
2018-02-05T19:11:17.671Z,53.12
2018-02-05T19:13:45.285Z,53.31
2018-02-05T19:16:12.907Z,53.32
2018-02-05T19:18:40.431Z,53.35
2018-02-05T19:21:07.972Z,53.77
2018-02-05T19:23:35.525Z,53.91
2018-02-05T19:26:03.027Z,54.14
2018-02-05T19:28:30.535Z,54.02
2018-02-05T19:30:58.129Z,54.06
2018-02-05T19:33:25.627Z,54.27
2018-02-05T19:35:53.160Z,54.34
2018-02-05T19:38:20.746Z,54.23
2018-02-05T19:40:48.337Z,54.30
2018-02-05T19:43:15.847Z,54.25
2018-02-05T19:45:44.232Z,54.32
2018-02-05T19:48:11.746Z,54.30
2018-02-05T19:50:39.291Z,54.23
2018-02-05T19:53:06.842Z,54.35
2018-02-05T19:55:34.443Z,54.41
2018-02-05T19:58:04.990Z,54.38
2018-02-05T20:00:32.536Z,54.51
2018-02-05T20:03:00.096Z,54.75
2018-02-05T20:05:27.628Z,54.93
2018-02-05T20:07:55.161Z,55.12
2018-02-05T20:10:22.768Z,55.43
2018-02-05T20:12:50.323Z,55.63
2018-02-05T20:15:17.945Z,55.82
2018-02-05T20:17:45.515Z,55.71
2018-02-05T20:20:13.060Z,55.61
2018-02-05T20:22:40.704Z,55.75
2018-02-05T20:25:08.225Z,55.55
2018-02-05T20:27:35.783Z,55.62
2018-02-05T20:30:03.306Z,55.74
2018-02-05T20:32:30.856Z,55.84
2018-02-05T20:34:58.378Z,55.95
2018-02-05T20:37:25.915Z,55.97
2018-02-05T20:39:53.464Z,56.13
2018-02-05T20:42:20.993Z,56.17
2018-02-05T20:44:48.594Z,56.13
2018-02-05T20:47:16.582Z,56.15
2018-02-05T20:49:44.237Z,56.29
2018-02-05T20:52:11.827Z,56.08
2018-02-05T20:54:39.351Z,55.80
2018-02-05T20:57:06.859Z,56.14
2018-02-05T20:59:34.442Z,56.15
2018-02-05T21:02:01.952Z,56.15
2018-02-05T21:04:29.444Z,56.41
2018-02-05T21:06:56.985Z,56.33
2018-02-05T21:09:24.518Z,56.30
2018-02-05T21:11:52.117Z,56.47
2018-02-05T21:14:20.119Z,56.39
2018-02-05T21:16:47.712Z,56.25
2018-02-05T21:19:15.358Z,56.33
2018-02-05T21:21:42.976Z,56.47
2018-02-05T21:24:10.456Z,56.64
2018-02-05T21:26:38.002Z,56.71
2018-02-05T21:29:05.685Z,56.65
2018-02-05T21:31:33.225Z,56.78
2018-02-05T21:34:00.758Z,56.79
2018-02-05T21:36:28.267Z,56.72
2018-02-05T21:38:55.796Z,56.88
2018-02-05T21:41:23.301Z,57.05
2018-02-05T21:43:50.819Z,56.92
2018-02-05T21:46:18.419Z,56.95
2018-02-05T21:48:45.929Z,56.73
2018-02-05T21:51:13.433Z,56.65
2018-02-05T21:53:41.594Z,56.59
2018-02-05T21:56:09.207Z,56.52
2018-02-05T21:58:37.112Z,56.53
2018-02-05T22:01:04.646Z,56.54
2018-02-05T22:03:32.155Z,56.77
2018-02-05T22:05:59.676Z,56.91
2018-02-05T22:08:27.194Z,57.05
2018-02-05T22:10:54.786Z,56.98
2018-02-05T22:13:22.320Z,56.75
2018-02-05T22:15:49.819Z,56.78
2018-02-05T22:18:17.358Z,57.10
2018-02-05T22:20:44.880Z,57.33
2018-02-05T22:23:12.375Z,57.61
2018-02-05T22:25:40.604Z,57.67
2018-02-05T22:28:08.223Z,57.75
2018-02-05T22:30:35.755Z,57.61
2018-02-05T22:33:03.393Z,57.77
2018-02-05T22:35:31.001Z,57.75
2018-02-05T22:37:58.472Z,58.74
2018-02-05T22:40:25.980Z,59.24
2018-02-05T22:42:53.509Z,59.11
2018-02-05T22:45:21.014Z,59.19
2018-02-05T22:47:48.563Z,58.89
2018-02-05T22:50:16.068Z,58.83
2018-02-05T22:52:43.669Z,59.11
2018-02-05T22:55:11.219Z,59.20
2018-02-05T22:57:42.611Z,59.14
2018-02-05T23:00:10.117Z,59.09
2018-02-05T23:02:37.614Z,58.85
2018-02-05T23:05:05.131Z,58.76
2018-02-05T23:07:32.621Z,58.55
2018-02-05T23:10:00.133Z,58.45
2018-02-05T23:12:27.650Z,58.26
2018-02-05T23:14:55.292Z,58.06
2018-02-05T23:17:22.788Z,57.68
2018-02-05T23:19:50.315Z,57.71
2018-02-05T23:22:17.835Z,57.60
2018-02-05T23:24:45.396Z,57.38
2018-02-05T23:27:12.913Z,57.06
2018-02-05T23:29:40.410Z,56.94
2018-02-05T23:32:08.036Z,56.88
2018-02-05T23:34:35.617Z,56.89
2018-02-05T23:37:03.225Z,57.47
2018-02-05T23:39:30.751Z,57.83
2018-02-05T23:41:58.462Z,58.49
2018-02-05T23:44:26.001Z,58.47
2018-02-05T23:46:53.534Z,58.34
2018-02-05T23:49:21.163Z,58.34
2018-02-05T23:51:48.700Z,58.49
2018-02-05T23:54:16.221Z,58.92
2018-02-05T23:56:43.719Z,59.13
2018-02-05T23:59:11.412Z,59.40
